KDBQ/DBQ METAR and TAF weather

Enter ICAO airport designator
Station Type Date Time Source
KDBQ METAR 2024/05/28 21:53 UTC NOAA

KDBQ 282153Z 34009KT 10SM -RA FEW029 SCT070 SCT090 16/12 A3006 RMK AO2 RAE2055B44 SLP181 P0000 T01560117 $


Station Type Date Time Source
KDBQ Decoded METAR 2024/05/28 21:53 UTC NOAA

DUBUQUE REGIONAL AIRPORT, IA, United States (KDBQ) 42-24N 90-42W 326M
May 28, 2024 - 05:53 PM EDT / 2024.05.28 2153 UTC
Wind: from the NNW (340 degrees) at 10 MPH (9 KT):0
Visibility: 10 mile(s):0
Sky conditions: partly cloudy
Weather: light rain
Precipitation last hour: A trace
Temperature: 60.1 F (15.6 C)
Dew Point: 53.1 F (11.7 C)
Relative Humidity: 77%
Pressure (altimeter): 30.06 in. Hg (1017 hPa)
ob: KDBQ 282153Z 34009KT 10SM -RA FEW029 SCT070 SCT090 16/12 A3006 RMK AO2 RAE2055B44 SLP181 P0000 T01560117
cycle: 22

Station Type Date Time Source
KDBQ TAF 2024/05/28 18:22 UTC NOAA